Terminal Aerodrome Forecast
Issued by NWS

Home | Current Version | Previous Version | Text Only | Print | Product List | Glossary On
Versions: 1 2 3 4 5 6 7 8 9 10 11 12 13 14 15 16 17 18 19 20 21 22 23 24
000
FTUS42 KTBW 191123
TAFPIE
TAF
KPIE 191123Z 1912/2012 16007KT P6SM FEW035 SCT250
     FM191600 18014G24KT P6SM SCT040 BKN250
     FM200100 20018G26KT P6SM VCSH BKN050 OVC100
     FM200400 24020G30KT 6SM SHRA VCTS BKN025CB OVC050=

USA.gov is the U.S. government's official web portal to all federal, state and local government web resources and services.